Flight Track Log - Related Links

Times and Time Zones

All times are in EDT time to prevent confusion due to time zone crossing. See the BEE2226 flight status page for this flight to view local times or setup timezone preferences in your user account.

Time Position Orientation Groundspeed Altitude Reporting Facility
EDT Latitude Longitude Course Direction KTS MPH feet Rate Location/Type
Sun 10:16:00 AM 60.4547 23.1645 97° East  Level Estimated
Sun 10:17:00 AM 60.4336 23.4643 98° East  Level Estimated
Sun 10:18:00 AM 60.4117 23.7638 98° East  Level Estimated
Sun 10:19:00 AM 60.3892 24.0628 99° East  Level Estimated
Sun 10:20:00 AM 60.3661 24.3614 99° East  Level Estimated
Sun 10:21:00 AM 60.3422 24.6595 99° East  Level Estimated
Sun 10:22:00 AM 60.3177 24.9572 99° East  Level Estimated
Sun 10:23:00 AM 60.3172 24.9633 100° East  Level Estimated
Sun 10:24:00 AM 60.3172 24.9633 37° Northeast  Level Estimated
Sun 10:25:00 AM 60.3172 24.9633 37° Northeast  Level Estimated
Sun 10:26:00 AM 60.3172 24.9633 37° Northeast  Level Estimated
Sun 10:27:00 AM 60.3172 24.9633 37° Northeast  Level Estimated
Sun 10:28:00 AM 60.3172 24.9633 37° Northeast  Level Estimated
Sun 10:29:00 AM 60.3172 24.9633 37° Northeast  Level Estimated
Sun 10:30:00 AM 60.3172 24.9633 37° Northeast  Level Estimated
Sun 10:31:00 AM 60.3172 24.9633 37° Northeast  Level Estimated
Sun 10:32:00 AM 60.3172 24.9633 37° Northeast  Level Estimated
Sun 10:33:00 AM 60.3172 24.9633 37° Northeast  Level Estimated
Sun 10:34:00 AM 60.3172 24.9633 37° Northeast  Level Estimated
Sun 10:35:00 AM 60.3172 24.9633 37° Northeast  Level Estimated
Sun 10:36:00 AM 60.3172 24.9633 37° Northeast  Level Estimated
Sun 10:37:00 AM 60.3172 24.9633 37° Northeast  Level Estimated
Sun 10:38:00 AM 60.3172 24.9633 37° Northeast  Level Estimated

Login

Don't have an account? Register now (free) for customized features, flight alerts, and more!